Time;durP1;ratioP1;P1;durP2;ratioP2;P2;SDS_P1;SDS_P2;PMS_P1;PMS_P2;Temp;Humidity;BMP_temperature;BMP_pressure;BME280_temperature;BME280_humidity;BME280_pressure;Samples;Min_cycle;Max_cycle;Signal;HPM_P1;HPM_P2
2021/09/16 00:01:19;;;;;;;;;;;21.40;73.00;;;;;;5052977;28;1332;-70
2021/09/16 00:03:44;;;;;;;;;;;21.40;73.00;;;;;;5052977;28;1914;-71
2021/09/16 00:06:10;;;;;;;;;;;21.40;73.00;;;;;;5052775;28;1329;-71
2021/09/16 00:08:36;;;;;;;;;;;21.40;73.00;;;;;;5052912;28;1400;-71
2021/09/16 00:11:01;;;;;;;;;;;21.40;73.00;;;;;;5015410;28;2465;-70
2021/09/16 00:13:26;;;;;;;;;;;21.40;73.00;;;;;;5027928;28;1322;-71
2021/09/16 00:15:53;;;;;;;;;;;21.40;73.00;;;;;;5052462;28;1320;-71
2021/09/16 00:18:19;;;;;;;;;;;21.40;73.00;;;;;;5035391;28;1322;-70
2021/09/16 00:20:45;;;;;;;;;;;21.40;73.10;;;;;;5053708;28;1401;-70
2021/09/16 00:23:10;;;;;;;;;;;21.40;73.00;;;;;;5036017;28;1906;-71
2021/09/16 00:25:36;;;;;;;;;;;21.40;73.10;;;;;;5052533;28;1337;-70
2021/09/16 00:28:01;;;;;;;;;;;21.40;73.10;;;;;;5035622;28;1390;-70
2021/09/16 00:30:27;;;;;;;;;;;21.40;73.00;;;;;;5052480;28;1373;-71
2021/09/16 00:32:52;;;;;;;;;;;21.40;73.00;;;;;;5053305;28;1081;-70
2021/09/16 00:35:17;;;;;;;;;;;21.40;73.10;;;;;;5034984;28;1311;-70
2021/09/16 00:37:43;;;;;;;;;;;21.40;73.00;;;;;;5034608;28;1265;-70
2021/09/16 00:40:09;;;;;;;;;;;21.40;73.90;;;;;;5052405;28;1364;-70
2021/09/16 00:42:34;;;;;;;;;;;21.40;73.10;;;;;;5034859;28;1277;-70
2021/09/16 00:44:59;;;;;;;;;;;21.40;73.10;;;;;;5052326;28;1909;-70
2021/09/16 00:47:25;;;;;;;;;;;21.40;73.10;;;;;;5052209;28;1244;-70
2021/09/16 00:49:50;;;;;;;;;;;21.40;73.10;;;;;;5052208;28;1352;-70
2021/09/16 00:52:16;;;;;;;;;;;21.40;73.10;;;;;;5046816;28;1316;-70
2021/09/16 00:54:42;;;;;;;;;;;21.40;73.10;;;;;;5049703;28;1282;-70
2021/09/16 00:57:08;;;;;;;;;;;21.40;73.10;;;;;;5051132;28;1251;-69
2021/09/16 00:59:33;;;;;;;;;;;21.40;73.20;;;;;;5031858;28;1321;-69
2021/09/16 01:01:59;;;;;;;;;;;21.40;73.20;;;;;;5042934;28;1219;-70
2021/09/16 01:04:24;;;;;;;;;;;21.50;73.50;;;;;;5027503;28;1998;-70
2021/09/16 01:06:50;;;;;;;;;;;21.50;73.40;;;;;;5024964;28;1169;-70
2021/09/16 01:09:15;;;;;;;;;;;21.50;73.40;;;;;;5027287;28;1347;-70
2021/09/16 01:11:41;;;;;;;;;;;21.60;73.40;;;;;;5031751;28;1296;-70
2021/09/16 01:14:07;;;;;;;;;;;21.60;73.40;;;;;;5039185;28;1148;-70
2021/09/16 01:16:33;;;;;;;;;;;21.60;73.40;;;;;;5014481;28;1206;-69
2021/09/16 01:18:58;;;;;;;;;;;21.60;73.40;;;;;;5050297;28;1355;-69
2021/09/16 01:21:24;;;;;;;;;;;21.60;73.40;;;;;;5052264;28;1304;-70
2021/09/16 01:23:49;;;;;;;;;;;21.60;73.30;;;;;;5052217;28;1969;-69
2021/09/16 01:26:14;;;;;;;;;;;21.70;73.40;;;;;;5034267;28;1276;-69
2021/09/16 01:28:40;;;;;;;;;;;21.60;73.40;;;;;;5051967;28;1314;-70
2021/09/16 01:31:05;;;;;;;;;;;21.70;73.40;;;;;;5052838;28;1352;-70
2021/09/16 01:33:31;;;;;;;;;;;21.70;73.50;;;;;;5017699;28;1505;-70
2021/09/16 01:35:56;;;;;;;;;;;21.70;73.50;;;;;;5051871;28;1233;-69
2021/09/16 01:38:22;;;;;;;;;;;21.70;73.40;;;;;;5052131;28;1432;-69
2021/09/16 01:40:47;;;;;;;;;;;21.70;73.50;;;;;;5052334;28;890;-69
2021/09/16 01:43:12;;;;;;;;;;;21.70;73.50;;;;;;5052831;28;1959;-70
2021/09/16 01:45:38;;;;;;;;;;;21.70;73.60;;;;;;5020963;28;1219;-70
2021/09/16 01:48:03;;;;;;;;;;;21.70;73.60;;;;;;5055535;28;1349;-69
2021/09/16 01:50:29;;;;;;;;;;;21.70;73.60;;;;;;5056083;28;1309;-70
2021/09/16 01:52:54;;;;;;;;;;;21.70;73.70;;;;;;5057213;28;1265;-70
2021/09/16 01:55:20;;;;;;;;;;;21.70;73.70;;;;;;5055880;28;1288;-70
2021/09/16 01:57:45;;;;;;;;;;;21.70;73.80;;;;;;5055449;28;1299;-70
2021/09/16 02:00:11;;;;;;;;;;;21.70;73.80;;;;;;5056430;28;1292;-69
2021/09/16 02:02:36;;;;;;;;;;;21.70;73.90;;;;;;5038475;28;1242;-70
2021/09/16 02:05:02;;;;;;;;;;;21.80;74.70;;;;;;5018787;28;1919;-70
2021/09/16 02:07:27;;;;;;;;;;;21.70;73.90;;;;;;5052075;28;1269;-70
2021/09/16 02:09:53;;;;;;;;;;;21.80;74.00;;;;;;5038693;28;1279;-70
2021/09/16 02:12:18;;;;;;;;;;;21.70;74.00;;;;;;5055895;28;698;-70
2021/09/16 02:14:43;;;;;;;;;;;21.70;74.20;;;;;;5055116;28;1088;-70
2021/09/16 02:17:09;;;;;;;;;;;21.80;74.20;;;;;;5037051;28;1384;-69
2021/09/16 02:19:34;;;;;;;;;;;21.80;74.10;;;;;;5055366;28;1311;-70
2021/09/16 02:22:00;;;;;;;;;;;21.80;74.00;;;;;;5037762;28;1081;-69
2021/09/16 02:24:25;;;;;;;;;;;21.80;74.00;;;;;;5054684;28;1894;-69
2021/09/16 02:26:51;;;;;;;;;;;21.80;73.90;;;;;;5037119;28;1238;-70
2021/09/16 02:29:16;;;;;;;;;;;21.80;73.90;;;;;;5017105;28;1461;-70
2021/09/16 02:31:41;;;;;;;;;;;21.80;73.80;;;;;;5050658;28;1304;-69
2021/09/16 02:34:07;;;;;;;;;;;21.80;73.80;;;;;;5054892;28;1092;-69
2021/09/16 02:36:32;;;;;;;;;;;21.80;73.80;;;;;;5036798;28;1136;-70
2021/09/16 02:38:58;;;;;;;;;;;21.90;73.90;;;;;;5036765;28;1339;-70
2021/09/16 02:41:23;;;;;;;;;;;21.90;73.90;;;;;;5036889;28;1332;-69
2021/09/16 02:43:48;;;;;;;;;;;21.90;73.80;;;;;;5054946;28;1910;-69
2021/09/16 02:46:14;;;;;;;;;;;21.90;73.80;;;;;;5036258;28;1330;-70
2021/09/16 02:48:39;;;;;;;;;;;21.90;73.90;;;;;;5054702;28;1355;-69
2021/09/16 02:51:05;;;;;;;;;;;21.90;73.90;;;;;;5054390;28;1361;-69
2021/09/16 02:53:30;;;;;;;;;;;21.90;73.90;;;;;;5036711;28;1475;-69
2021/09/16 02:55:56;;;;;;;;;;;21.90;73.90;;;;;;5053837;28;1280;-70
2021/09/16 02:58:21;;;;;;;;;;;21.90;74.60;;;;;;5054757;28;1365;-69
2021/09/16 03:00:47;;;;;;;;;;;21.90;73.90;;;;;;5052402;28;1331;-70
2021/09/16 03:03:12;;;;;;;;;;;21.90;73.90;;;;;;5025166;28;2007;-69
2021/09/16 03:05:38;;;;;;;;;;;21.90;73.90;;;;;;5053998;28;1307;-70
2021/09/16 03:08:03;;;;;;;;;;;21.90;74.00;;;;;;5054062;28;1261;-70
2021/09/16 03:10:29;;;;;;;;;;;21.90;74.00;;;;;;5054350;28;1648;-70
2021/09/16 03:12:55;;;;;;;;;;;21.90;74.10;;;;;;5036290;28;1280;-70
2021/09/16 03:15:21;;;;;;;;;;;21.90;74.20;;;;;;5053847;28;1316;-70
2021/09/16 03:17:46;;;;;;;;;;;21.90;74.20;;;;;;5053776;28;1288;-70
2021/09/16 03:20:12;;;;;;;;;;;21.90;74.30;;;;;;5053964;28;1181;-70
2021/09/16 03:22:37;;;;;;;;;;;21.90;75.10;;;;;;5054098;28;799;-70
2021/09/16 03:25:03;;;;;;;;;;;21.90;74.30;;;;;;5035853;28;1898;-69
2021/09/16 03:27:28;;;;;;;;;;;21.90;74.30;;;;;;5035741;28;1278;-70
2021/09/16 03:29:54;;;;;;;;;;;21.90;74.30;;;;;;5053896;28;1327;-70
2021/09/16 03:32:19;;;;;;;;;;;21.90;74.40;;;;;;5019381;28;1362;-69
2021/09/16 03:34:44;;;;;;;;;;;21.90;74.30;;;;;;5053928;28;1272;-69
2021/09/16 03:37:10;;;;;;;;;;;21.90;74.30;;;;;;5053338;28;1255;-70
2021/09/16 03:39:35;;;;;;;;;;;21.90;74.30;;;;;;5052857;28;1376;-69
2021/09/16 03:42:01;;;;;;;;;;;22.00;74.40;;;;;;5050310;28;1224;-70
2021/09/16 03:44:26;;;;;;;;;;;22.00;74.80;;;;;;5052643;28;1980;-70
2021/09/16 03:46:53;;;;;;;;;;;22.00;74.50;;;;;;5053253;28;804;-70
2021/09/16 03:49:19;;;;;;;;;;;22.00;74.40;;;;;;5053268;28;1370;-70
2021/09/16 03:51:44;;;;;;;;;;;22.00;74.40;;;;;;5053378;28;1327;-69
2021/09/16 03:54:10;;;;;;;;;;;22.00;74.40;;;;;;5035337;28;1536;-69
2021/09/16 03:56:35;;;;;;;;;;;22.00;74.40;;;;;;5035089;28;1443;-70
2021/09/16 03:59:00;;;;;;;;;;;22.00;74.40;;;;;;5053002;28;1399;-69
2021/09/16 04:01:26;;;;;;;;;;;21.90;74.40;;;;;;5046027;28;1276;-70
2021/09/16 04:03:51;;;;;;;;;;;22.00;74.70;;;;;;5028995;28;1882;-69
2021/09/16 04:06:17;;;;;;;;;;;21.90;74.60;;;;;;5052428;28;1316;-70
2021/09/16 04:08:42;;;;;;;;;;;21.90;74.60;;;;;;5052993;28;1305;-69
2021/09/16 04:11:07;;;;;;;;;;;21.90;74.70;;;;;;5053054;28;1467;-69
2021/09/16 04:13:33;;;;;;;;;;;22.00;74.80;;;;;;5052945;28;1268;-69
2021/09/16 04:15:58;;;;;;;;;;;21.90;74.70;;;;;;5052510;28;1100;-69
2021/09/16 04:18:24;;;;;;;;;;;21.90;74.70;;;;;;5052951;28;1322;-70
2021/09/16 04:20:49;;;;;;;;;;;21.90;74.80;;;;;;5052729;28;1341;-70
2021/09/16 04:23:15;;;;;;;;;;;21.90;74.80;;;;;;5015241;28;1957;-70
2021/09/16 04:25:40;;;;;;;;;;;22.00;74.90;;;;;;5051745;28;1321;-70
2021/09/16 04:28:05;;;;;;;;;;;21.90;74.80;;;;;;5052894;28;1076;-70
2021/09/16 04:30:31;;;;;;;;;;;21.90;74.80;;;;;;5052276;28;1358;-70
2021/09/16 04:32:56;;;;;;;;;;;21.90;74.90;;;;;;5052828;28;1275;-70
2021/09/16 04:35:22;;;;;;;;;;;21.90;74.80;;;;;;5052547;28;1268;-70
2021/09/16 04:37:47;;;;;;;;;;;21.90;74.80;;;;;;5034757;28;1339;-69
2021/09/16 04:40:13;;;;;;;;;;;21.90;74.90;;;;;;5052524;28;1427;-69
2021/09/16 04:42:39;;;;;;;;;;;21.90;74.90;;;;;;5035067;28;1349;-69
2021/09/16 04:45:05;;;;;;;;;;;21.90;74.90;;;;;;5052175;28;1914;-69
2021/09/16 04:47:31;;;;;;;;;;;21.90;74.90;;;;;;5052791;28;1364;-70
2021/09/16 04:49:56;;;;;;;;;;;21.90;74.90;;;;;;5052353;28;1336;-70
2021/09/16 04:52:22;;;;;;;;;;;21.90;74.90;;;;;;5052647;28;1077;-69
2021/09/16 04:54:48;;;;;;;;;;;21.90;74.90;;;;;;5052381;28;1124;-69
2021/09/16 04:57:13;;;;;;;;;;;21.90;74.90;;;;;;5049091;28;1825;-68
2021/09/16 04:59:39;;;;;;;;;;;21.90;74.90;;;;;;5031494;28;1873;-67
2021/09/16 05:02:04;;;;;;;;;;;21.90;75.00;;;;;;5048912;28;1050;-68
2021/09/16 05:04:29;;;;;;;;;;;21.90;74.90;;;;;;5045557;28;1967;-69
2021/09/16 05:06:55;;;;;;;;;;;22.00;75.00;;;;;;5027738;28;1097;-70
2021/09/16 05:09:20;;;;;;;;;;;21.90;74.90;;;;;;5052007;28;1396;-69
2021/09/16 05:11:46;;;;;;;;;;;22.00;74.90;;;;;;5052024;28;1331;-69
2021/09/16 05:14:12;;;;;;;;;;;22.00;74.90;;;;;;5052143;28;1269;-69
2021/09/16 05:16:37;;;;;;;;;;;22.00;74.80;;;;;;5051995;28;1284;-68
2021/09/16 05:19:03;;;;;;;;;;;22.00;74.70;;;;;;5054241;28;1320;-68
2021/09/16 05:21:28;;;;;;;;;;;22.10;74.70;;;;;;5055787;28;1246;-68
2021/09/16 05:23:53;;;;;;;;;;;22.10;74.50;;;;;;5056076;28;1961;-68
2021/09/16 05:26:19;;;;;;;;;;;22.10;74.80;;;;;;5055938;28;1352;-68
2021/09/16 05:28:45;;;;;;;;;;;22.20;74.40;;;;;;5055545;28;1271;-68
2021/09/16 05:31:11;;;;;;;;;;;22.20;74.30;;;;;;5056152;28;1266;-68
2021/09/16 05:33:36;;;;;;;;;;;22.20;74.10;;;;;;5018193;28;1456;-68
2021/09/16 05:36:02;;;;;;;;;;;22.30;74.00;;;;;;5046634;28;1112;-68
2021/09/16 05:38:28;;;;;;;;;;;22.30;74.00;;;;;;5037978;28;1331;-68
2021/09/16 05:40:53;;;;;;;;;;;22.30;73.90;;;;;;5038035;28;1148;-68
2021/09/16 05:43:18;;;;;;;;;;;22.30;73.80;;;;;;5055527;28;1955;-68
2021/09/16 05:45:44;;;;;;;;;;;22.40;73.80;;;;;;5037762;28;1239;-68
2021/09/16 05:48:09;;;;;;;;;;;22.30;73.50;;;;;;5055596;28;1416;-68
2021/09/16 05:50:35;;;;;;;;;;;22.40;73.50;;;;;;5055723;28;1397;-68
2021/09/16 05:53:00;;;;;;;;;;;22.40;73.60;;;;;;5055618;28;1370;-68
2021/09/16 05:55:26;;;;;;;;;;;22.40;73.50;;;;;;5055354;28;812;-68
2021/09/16 05:57:51;;;;;;;;;;;22.40;73.50;;;;;;5055444;28;1249;-68
2021/09/16 06:00:17;;;;;;;;;;;22.40;73.40;;;;;;5037490;28;1302;-68
2021/09/16 06:02:42;;;;;;;;;;;22.40;73.60;;;;;;5055332;28;1170;-68
2021/09/16 06:05:08;;;;;;;;;;;22.40;73.50;;;;;;5053623;28;1898;-68
2021/09/16 06:07:34;;;;;;;;;;;22.40;73.70;;;;;;5054614;28;1180;-68
2021/09/16 06:10:00;;;;;;;;;;;22.40;73.60;;;;;;5048953;28;1391;-68
2021/09/16 06:12:27;;;;;;;;;;;22.50;73.50;;;;;;5055024;28;1324;-68
2021/09/16 06:14:52;;;;;;;;;;;22.50;73.40;;;;;;5055053;28;1276;-68
2021/09/16 06:17:18;;;;;;;;;;;22.50;73.40;;;;;;5054959;28;1345;-68
2021/09/16 06:19:43;;;;;;;;;;;22.50;73.40;;;;;;5055038;28;1301;-68
2021/09/16 06:22:09;;;;;;;;;;;22.50;73.40;;;;;;5055047;28;1276;-68
2021/09/16 06:24:34;;;;;;;;;;;22.50;73.40;;;;;;5037396;28;1969;-68
2021/09/16 06:27:00;;;;;;;;;;;22.50;73.50;;;;;;5054328;28;1285;-68
2021/09/16 06:29:25;;;;;;;;;;;22.40;73.50;;;;;;5036598;28;1309;-68
2021/09/16 06:31:51;;;;;;;;;;;22.50;73.60;;;;;;5054876;28;1362;-68
2021/09/16 06:34:17;;;;;;;;;;;22.40;73.60;;;;;;5050712;28;1911;-70
2021/09/16 06:36:42;;;;;;;;;;;22.40;73.70;;;;;;5052802;28;1263;-70
2021/09/16 06:39:08;;;;;;;;;;;22.40;73.80;;;;;;5036905;28;1312;-69
2021/09/16 06:41:33;;;;;;;;;;;22.40;73.90;;;;;;5036453;28;1277;-70
2021/09/16 06:43:59;;;;;;;;;;;22.40;73.80;;;;;;5054533;28;1968;-69
2021/09/16 06:46:24;;;;;;;;;;;22.40;73.70;;;;;;5054310;28;1317;-70
2021/09/16 06:48:49;;;;;;;;;;;22.40;73.60;;;;;;5054710;28;1351;-70
2021/09/16 06:51:15;;;;;;;;;;;22.40;73.70;;;;;;5036749;28;1173;-72
2021/09/16 06:53:40;;;;;;;;;;;22.40;73.70;;;;;;5053206;28;1722;-68
2021/09/16 06:56:06;;;;;;;;;;;22.40;73.80;;;;;;5046684;28;1310;-68
2021/09/16 06:58:31;;;;;;;;;;;22.40;73.70;;;;;;5047103;28;1802;-68
2021/09/16 07:00:57;;;;;;;;;;;22.40;73.80;;;;;;5047085;28;1757;-68
2021/09/16 07:03:22;;;;;;;;;;;22.40;73.90;;;;;;5039203;28;1883;-68
2021/09/16 07:05:47;;;;;;;;;;;22.40;74.10;;;;;;5033643;28;1368;-68
2021/09/16 07:08:13;;;;;;;;;;;22.40;74.00;;;;;;5042525;28;1618;-68
2021/09/16 07:10:38;;;;;;;;;;;22.40;74.00;;;;;;5040143;28;1475;-68
2021/09/16 07:13:05;;;;;;;;;;;22.40;74.10;;;;;;5036255;28;1358;-69
2021/09/16 07:15:30;;;;;;;;;;;22.40;73.90;;;;;;5036634;28;1450;-68
2021/09/16 07:17:55;;;;;;;;;;;22.40;74.10;;;;;;5053934;28;866;-68
2021/09/16 07:20:21;;;;;;;;;;;22.40;74.20;;;;;;5054052;28;1201;-68
2021/09/16 07:22:46;;;;;;;;;;;22.40;74.10;;;;;;5054016;28;1280;-69
2021/09/16 07:25:12;;;;;;;;;;;22.40;74.40;;;;;;5032333;28;1890;-68
2021/09/16 07:27:38;;;;;;;;;;;22.40;74.50;;;;;;5035634;28;1476;-68
2021/09/16 07:30:04;;;;;;;;;;;22.50;74.30;;;;;;5053895;28;1297;-68
2021/09/16 07:32:29;;;;;;;;;;;22.40;74.00;;;;;;5022012;28;1296;-68
2021/09/16 07:34:55;;;;;;;;;;;22.40;74.00;;;;;;5047186;28;1543;-68
2021/09/16 07:37:21;;;;;;;;;;;22.40;74.10;;;;;;5025766;28;1416;-68
2021/09/16 07:39:46;;;;;;;;;;;22.40;74.20;;;;;;5049535;28;1382;-68
2021/09/16 07:42:11;;;;;;;;;;;22.40;74.30;;;;;;5025440;28;1624;-68
2021/09/16 07:44:37;;;;;;;;;;;22.40;74.10;;;;;;5028597;28;1902;-68
2021/09/16 07:47:02;;;;;;;;;;;22.40;74.10;;;;;;5046719;28;1346;-68
2021/09/16 07:49:28;;;;;;;;;;;22.40;74.20;;;;;;5050024;28;1618;-68
2021/09/16 07:51:53;;;;;;;;;;;22.40;74.30;;;;;;5044645;28;1569;-68
2021/09/16 07:54:19;;;;;;;;;;;22.40;74.50;;;;;;5039931;28;1537;-69
2021/09/16 07:56:44;;;;;;;;;;;22.40;74.50;;;;;;5047439;28;1511;-68
2021/09/16 07:59:10;;;;;;;;;;;22.40;74.50;;;;;;5053269;28;1396;-68
2021/09/16 08:01:35;;;;;;;;;;;22.40;74.70;;;;;;5044819;28;855;-68
2021/09/16 08:04:04;;;;;;;;;;;22.30;74.50;;;;;;5030441;28;1899;-68
2021/09/16 08:06:29;;;;;;;;;;;22.30;74.40;;;;;;5035106;28;1380;-68
2021/09/16 08:08:55;;;;;;;;;;;22.30;74.50;;;;;;5053203;28;1381;-67
2021/09/16 08:11:20;;;;;;;;;;;22.30;74.60;;;;;;5035014;28;1692;-68
2021/09/16 08:13:46;;;;;;;;;;;22.30;74.70;;;;;;5053171;28;1418;-68
2021/09/16 08:16:11;;;;;;;;;;;22.30;74.70;;;;;;5052768;28;895;-68
2021/09/16 08:18:37;;;;;;;;;;;22.30;74.70;;;;;;5052987;28;1497;-68
2021/09/16 08:21:03;;;;;;;;;;;22.30;74.70;;;;;;5035127;28;1379;-68
2021/09/16 08:23:28;;;;;;;;;;;22.30;74.80;;;;;;5053037;28;1909;-68
2021/09/16 08:25:53;;;;;;;;;;;22.30;74.80;;;;;;5034864;28;902;-68
2021/09/16 08:28:19;;;;;;;;;;;22.30;74.90;;;;;;5052560;28;1651;-69
2021/09/16 08:30:44;;;;;;;;;;;22.30;75.10;;;;;;5053105;28;1343;-68
2021/09/16 08:33:10;;;;;;;;;;;22.30;75.80;;;;;;5034782;28;1567;-68
2021/09/16 08:35:35;;;;;;;;;;;22.30;75.20;;;;;;5034885;28;1378;-69
2021/09/16 08:38:01;;;;;;;;;;;22.30;75.20;;;;;;5034840;28;1633;-70
2021/09/16 08:40:26;;;;;;;;;;;22.30;75.30;;;;;;5034832;28;1622;-68
2021/09/16 08:42:52;;;;;;;;;;;22.20;75.30;;;;;;5052683;28;1185;-69
2021/09/16 08:45:18;;;;;;;;;;;22.20;75.10;;;;;;5052730;28;1910;-69
2021/09/16 08:47:48;;;;;;;;;;;22.30;75.10;;;;;;5031183;28;2298;-69
2021/09/16 08:50:13;;;;;;;;;;;22.20;75.00;;;;;;5033610;28;1327;-68
2021/09/16 08:52:39;;;;;;;;;;;22.30;75.10;;;;;;5025512;28;1730;-68
2021/09/16 08:55:05;;;;;;;;;;;22.30;75.10;;;;;;5049283;28;1311;-68
2021/09/16 08:57:32;;;;;;;;;;;22.30;75.10;;;;;;5046157;28;1368;-68
2021/09/16 08:59:57;;;;;;;;;;;22.30;75.20;;;;;;5029745;28;1530;-68
2021/09/16 09:02:23;;;;;;;;;;;22.30;75.40;;;;;;5031481;28;1616;-68
2021/09/16 09:04:48;;;;;;;;;;;22.30;75.20;;;;;;5052398;28;1910;-68
2021/09/16 09:07:19;;;;;;;;;;;22.30;75.00;;;;;;5036691;28;1674;-68
2021/09/16 09:09:44;;;;;;;;;;;22.30;74.30;;;;;;5056409;28;1577;-68
2021/09/16 09:12:11;;;;;;;;;;;22.30;71.20;;;;;;5035230;28;1386;-68
2021/09/16 09:14:46;;;;;;;;;;;22.20;70.00;;;;;;5046519;28;1090;-68
2021/09/16 09:17:31;;;;;;;;;;;22.10;69.60;;;;;;5053620;28;1246;-68
2021/09/16 09:20:01;;;;;;;;;;;22.10;69.40;;;;;;5031472;28;1292;-68
2021/09/16 09:22:30;;;;;;;;;;;22.00;68.50;;;;;;5051460;28;1132;-68
2021/09/16 09:25:03;;;;;;;;;;;22.00;68.30;;;;;;5029474;28;1980;-68
2021/09/16 09:27:32;;;;;;;;;;;22.00;68.30;;;;;;5044871;28;1254;-68
2021/09/16 09:30:10;;;;;;;;;;;21.90;68.10;;;;;;5047885;28;1360;-69
2021/09/16 09:32:54;;;;;;;;;;;21.90;67.70;;;;;;5048274;28;1293;-69
2021/09/16 09:35:27;;;;;;;;;;;21.90;67.50;;;;;;5049455;28;1313;-69
2021/09/16 09:37:52;;;;;;;;;;;21.80;67.70;;;;;;5045836;28;1313;-69
2021/09/16 09:40:37;;;;;;;;;;;21.80;67.70;;;;;;5031344;28;1369;-69
2021/09/16 09:43:18;;;;;;;;;;;21.80;67.80;;;;;;5047894;28;1298;-69
2021/09/16 09:45:55;;;;;;;;;;;21.80;67.60;;;;;;5049355;28;1966;-68
2021/09/16 09:48:21;;;;;;;;;;;21.80;67.50;;;;;;5031989;28;1322;-68
2021/09/16 09:50:49;;;;;;;;;;;21.80;68.40;;;;;;5053181;28;1308;-69
2021/09/16 09:53:15;;;;;;;;;;;21.80;68.10;;;;;;5050811;28;1749;-68
2021/09/16 09:55:40;;;;;;;;;;;21.70;67.60;;;;;;5037212;28;1281;-68
2021/09/16 09:58:06;;;;;;;;;;;21.70;67.20;;;;;;5037741;28;1364;-68
2021/09/16 10:00:31;;;;;;;;;;;21.70;67.30;;;;;;5055122;28;1284;-68
2021/09/16 10:02:57;;;;;;;;;;;21.70;66.90;;;;;;5037180;28;1238;-68
2021/09/16 10:05:22;;;;;;;;;;;21.70;67.20;;;;;;5054920;28;1898;-69
2021/09/16 10:07:48;;;;;;;;;;;21.70;67.10;;;;;;5053572;28;1277;-69
2021/09/16 10:10:14;;;;;;;;;;;21.70;67.80;;;;;;5037426;28;1287;-68
2021/09/16 10:12:40;;;;;;;;;;;21.70;67.90;;;;;;5054032;28;1330;-69
2021/09/16 10:15:06;;;;;;;;;;;21.70;67.70;;;;;;5040313;28;1222;-69
2021/09/16 10:17:31;;;;;;;;;;;21.70;68.30;;;;;;5036490;28;1289;-69
2021/09/16 10:19:57;;;;;;;;;;;21.70;68.60;;;;;;5036972;28;1306;-69
2021/09/16 10:22:22;;;;;;;;;;;21.70;68.60;;;;;;5054698;28;1321;-69
2021/09/16 10:24:47;;;;;;;;;;;21.70;68.30;;;;;;5036903;28;1969;-69
2021/09/16 10:27:26;;;;;;;;;;;21.60;69.00;;;;;;5036661;28;1314;-69
2021/09/16 10:29:52;;;;;;;;;;;21.70;69.20;;;;;;5035296;28;1664;-69
2021/09/16 10:32:17;;;;;;;;;;;21.60;69.30;;;;;;5025901;28;1225;-69
2021/09/16 10:34:44;;;;;;;;;;;21.70;69.30;;;;;;5049743;28;1648;-68
2021/09/16 10:37:10;;;;;;;;;;;21.60;68.50;;;;;;5036649;28;1674;-69
2021/09/16 10:39:39;;;;;;;;;;;21.60;68.80;;;;;;5030562;28;1377;-69
2021/09/16 10:42:04;;;;;;;;;;;21.60;69.60;;;;;;5012505;28;1341;-69
2021/09/16 10:44:30;;;;;;;;;;;21.60;69.50;;;;;;5054499;28;1914;-70
2021/09/16 10:47:00;;;;;;;;;;;21.60;69.40;;;;;;5036605;28;1299;-70
2021/09/16 10:49:28;;;;;;;;;;;21.60;69.70;;;;;;5037183;28;1347;-69
2021/09/16 10:51:54;;;;;;;;;;;21.60;69.50;;;;;;5054322;28;1060;-70
2021/09/16 10:54:23;;;;;;;;;;;21.60;69.40;;;;;;5050967;28;1339;-70
2021/09/16 10:57:14;;;;;;;;;;;21.60;69.50;;;;;;5027728;28;1355;-70
2021/09/16 10:59:52;;;;;;;;;;;21.60;69.40;;;;;;5019810;28;1335;-69
2021/09/16 11:02:20;;;;;;;;;;;21.60;69.40;;;;;;5045643;28;1497;-71
2021/09/16 11:04:59;;;;;;;;;;;21.60;69.60;;;;;;5046099;28;1901;-72
2021/09/16 11:07:34;;;;;;;;;;;21.60;69.50;;;;;;5050234;28;1254;-72
2021/09/16 11:10:15;;;;;;;;;;;21.60;69.40;;;;;;5028450;28;1347;-73
2021/09/16 11:12:41;;;;;;;;;;;21.60;69.30;;;;;;5045614;28;1313;-72
2021/09/16 11:15:07;;;;;;;;;;;21.60;69.70;;;;;;5044266;28;1353;-72
2021/09/16 11:17:32;;;;;;;;;;;21.60;69.10;;;;;;5028214;28;1291;-71
2021/09/16 11:19:58;;;;;;;;;;;21.60;69.80;;;;;;5044750;28;1309;-71
2021/09/16 11:22:23;;;;;;;;;;;21.60;69.40;;;;;;5030557;28;1296;-71
2021/09/16 11:24:49;;;;;;;;;;;21.60;69.40;;;;;;5042929;28;1894;-70
2021/09/16 11:27:28;;;;;;;;;;;21.60;69.40;;;;;;5046884;28;1799;-71
2021/09/16 11:29:54;;;;;;;;;;;21.60;69.60;;;;;;5024965;28;1376;-71
2021/09/16 11:32:19;;;;;;;;;;;21.60;65.40;;;;;;5050582;28;1192;-71
2021/09/16 11:34:52;;;;;;;;;;;21.50;64.10;;;;;;5030020;28;1108;-70
2021/09/16 11:37:30;;;;;;;;;;;21.50;66.40;;;;;;5051901;28;1253;-70
2021/09/16 11:39:59;;;;;;;;;;;21.50;68.30;;;;;;5052783;28;1350;-70
2021/09/16 11:42:25;;;;;;;;;;;21.50;68.50;;;;;;5035621;28;1400;-70
2021/09/16 11:45:09;;;;;;;;;;;21.50;68.50;;;;;;5053245;28;1909;-70
2021/09/16 11:47:36;;;;;;;;;;;21.50;68.80;;;;;;5053050;28;1128;-70
2021/09/16 11:50:01;;;;;;;;;;;21.50;68.80;;;;;;5053176;28;1328;-71
2021/09/16 11:52:26;;;;;;;;;;;21.50;68.30;;;;;;5053796;28;1257;-71
2021/09/16 11:55:12;;;;;;;;;;;21.50;68.90;;;;;;5053181;28;1199;-70
2021/09/16 11:57:54;;;;;;;;;;;21.50;68.90;;;;;;5052873;28;1256;-70
2021/09/16 12:00:24;;;;;;;;;;;21.50;69.10;;;;;;5035304;28;1248;-70
2021/09/16 12:02:49;;;;;;;;;;;21.50;68.70;;;;;;5035296;28;1245;-71
2021/09/16 12:05:33;;;;;;;;;;;21.50;69.00;;;;;;5053107;28;1969;-70
2021/09/16 12:07:59;;;;;;;;;;;21.50;69.30;;;;;;5040867;28;1339;-70
2021/09/16 12:10:25;;;;;;;;;;;21.50;69.50;;;;;;5053024;28;1304;-70
2021/09/16 12:12:50;;;;;;;;;;;21.50;69.50;;;;;;5034876;28;1352;-71
2021/09/16 12:15:22;;;;;;;;;;;21.50;69.30;;;;;;5035239;28;1113;-70
2021/09/16 12:17:47;;;;;;;;;;;21.50;69.20;;;;;;5035186;28;1252;-71
2021/09/16 12:20:13;;;;;;;;;;;21.50;69.40;;;;;;5052859;28;1341;-69
2021/09/16 12:22:38;;;;;;;;;;;21.50;67.90;;;;;;5035015;28;1270;-69
2021/09/16 12:25:04;;;;;;;;;;;21.40;67.50;;;;;;5052679;28;1902;-68
2021/09/16 12:27:29;;;;;;;;;;;21.50;68.00;;;;;;5033737;28;1616;-69
2021/09/16 12:29:55;;;;;;;;;;;21.50;68.30;;;;;;5052598;28;1360;-70
2021/09/16 12:32:29;;;;;;;;;;;21.50;68.50;;;;;;5052887;28;1274;-69
2021/09/16 12:34:54;;;;;;;;;;;21.50;68.40;;;;;;5052861;28;1330;-69
2021/09/16 12:37:19;;;;;;;;;;;21.50;68.80;;;;;;5051965;28;1880;-69
2021/09/16 12:39:46;;;;;;;;;;;21.50;68.40;;;;;;5048138;28;1736;-69
2021/09/16 12:42:14;;;;;;;;;;;21.50;68.70;;;;;;5034390;28;1284;-70
2021/09/16 12:44:40;;;;;;;;;;;21.50;68.80;;;;;;5052571;28;1987;-69
2021/09/16 12:47:14;;;;;;;;;;;21.50;69.50;;;;;;5052360;28;1280;-69
2021/09/16 12:49:42;;;;;;;;;;;21.50;68.80;;;;;;5034881;28;1332;-70
2021/09/16 12:52:17;;;;;;;;;;;21.50;68.80;;;;;;5052602;28;1072;-71
2021/09/16 12:54:43;;;;;;;;;;;21.50;68.80;;;;;;5052124;28;1332;-69
2021/09/16 12:57:09;;;;;;;;;;;21.50;68.60;;;;;;5052148;28;1302;-70
2021/09/16 12:59:34;;;;;;;;;;;21.50;69.00;;;;;;5034542;28;1374;-69
2021/09/16 13:02:13;;;;;;;;;;;21.50;68.50;;;;;;5052393;28;1213;-70
2021/09/16 13:04:52;;;;;;;;;;;21.50;68.30;;;;;;5052377;28;1967;-71
2021/09/16 13:07:18;;;;;;;;;;;21.50;67.50;;;;;;5051886;28;1294;-70
2021/09/16 13:09:43;;;;;;;;;;;21.40;66.90;;;;;;5052202;28;1264;-70
2021/09/16 13:12:16;;;;;;;;;;;21.50;66.60;;;;;;5052179;28;1335;-71
2021/09/16 13:14:41;;;;;;;;;;;21.40;66.70;;;;;;5052414;28;1263;-70
2021/09/16 13:17:07;;;;;;;;;;;21.40;67.00;;;;;;5034044;28;1317;-69
2021/09/16 13:19:32;;;;;;;;;;;21.40;66.70;;;;;;5034333;28;1352;-70
2021/09/16 13:21:58;;;;;;;;;;;21.40;66.50;;;;;;5016219;28;1410;-72
2021/09/16 13:24:23;;;;;;;;;;;21.40;66.40;;;;;;5052261;28;1957;-70
2021/09/16 13:26:49;;;;;;;;;;;21.40;66.20;;;;;;5033931;28;1296;-70
2021/09/16 13:29:14;;;;;;;;;;;21.40;66.00;;;;;;5051444;28;1284;-70
2021/09/16 13:31:40;;;;;;;;;;;21.40;66.00;;;;;;5052064;28;1262;-71
2021/09/16 13:34:05;;;;;;;;;;;21.40;66.20;;;;;;5051782;28;1253;-70
2021/09/16 13:36:30;;;;;;;;;;;21.40;66.30;;;;;;5052026;28;1072;-71
2021/09/16 13:38:57;;;;;;;;;;;21.40;66.90;;;;;;5052109;28;1260;-70
2021/09/16 13:41:22;;;;;;;;;;;21.40;66.20;;;;;;5055854;28;1375;-70
2021/09/16 13:43:48;;;;;;;;;;;21.40;66.30;;;;;;5055727;28;1902;-70
2021/09/16 13:46:13;;;;;;;;;;;21.40;66.30;;;;;;5055408;28;1144;-71
2021/09/16 13:48:38;;;;;;;;;;;21.40;66.10;;;;;;5055474;28;1341;-70
2021/09/16 13:51:04;;;;;;;;;;;21.40;66.40;;;;;;5055803;28;1333;-70
2021/09/16 13:53:29;;;;;;;;;;;21.40;66.50;;;;;;5055576;28;1264;-70
2021/09/16 13:55:55;;;;;;;;;;;21.40;66.50;;;;;;5055029;28;1306;-70
2021/09/16 13:58:20;;;;;;;;;;;21.40;66.70;;;;;;5055368;28;1390;-70
2021/09/16 14:00:46;;;;;;;;;;;21.40;66.70;;;;;;5055418;28;1346;-70
2021/09/16 14:03:11;;;;;;;;;;;21.40;66.80;;;;;;5055368;28;828;-70
2021/09/16 14:05:37;;;;;;;;;;;21.40;66.50;;;;;;5020646;28;1969;-70
2021/09/16 14:08:02;;;;;;;;;;;21.40;66.10;;;;;;5053525;28;2982;-69
2021/09/16 14:10:28;;;;;;;;;;;21.40;66.10;;;;;;5043706;28;2477;-70
2021/09/16 14:12:53;;;;;;;;;;;21.40;65.70;;;;;;5049366;28;1285;-69
2021/09/16 14:15:19;;;;;;;;;;;21.40;66.50;;;;;;5054989;28;1653;-70
2021/09/16 14:17:44;;;;;;;;;;;21.40;66.60;;;;;;5054978;28;1077;-70
2021/09/16 14:20:10;;;;;;;;;;;21.40;66.50;;;;;;5020821;28;1430;-69
2021/09/16 14:22:35;;;;;;;;;;;21.40;66.80;;;;;;5053405;28;1060;-71
2021/09/16 14:25:01;;;;;;;;;;;21.40;66.90;;;;;;5028072;28;1971;-69
2021/09/16 14:27:26;;;;;;;;;;;21.40;67.00;;;;;;5036079;28;1608;-69